sensor_id;sensor_type;location;lat;lon;timestamp;P1;durP1;ratioP1;P2;durP2;ratioP2
5521;SDS011;2783;48.730;8.006;2023-10-09T00:01:05;0.30;;;0.30;;
5521;SDS011;2783;48.730;8.006;2023-10-09T00:03:45;0.30;;;0.30;;
5521;SDS011;2783;48.730;8.006;2023-10-09T00:06:17;0.40;;;0.40;;
5521;SDS011;2783;48.730;8.006;2023-10-09T00:08:48;0.40;;;0.40;;
5521;SDS011;2783;48.730;8.006;2023-10-09T00:11:18;0.30;;;0.30;;
5521;SDS011;2783;48.730;8.006;2023-10-09T00:13:45;0.30;;;0.30;;
5521;SDS011;2783;48.730;8.006;2023-10-09T00:16:17;0.40;;;0.40;;
5521;SDS011;2783;48.730;8.006;2023-10-09T00:19:11;0.30;;;0.30;;
5521;SDS011;2783;48.730;8.006;2023-10-09T00:21:40;0.35;;;0.35;;
5521;SDS011;2783;48.730;8.006;2023-10-09T00:24:06;0.30;;;0.30;;
5521;SDS011;2783;48.730;8.006;2023-10-09T00:26:38;0.30;;;0.30;;
5521;SDS011;2783;48.730;8.006;2023-10-09T00:29:11;0.30;;;0.30;;
5521;SDS011;2783;48.730;8.006;2023-10-09T00:31:46;0.30;;;0.30;;
5521;SDS011;2783;48.730;8.006;2023-10-09T00:34:28;0.30;;;0.30;;
5521;SDS011;2783;48.730;8.006;2023-10-09T00:36:54;0.30;;;0.30;;
5521;SDS011;2783;48.730;8.006;2023-10-09T00:39:20;0.30;;;0.30;;
5521;SDS011;2783;48.730;8.006;2023-10-09T00:42:02;0.30;;;0.30;;
5521;SDS011;2783;48.730;8.006;2023-10-09T00:44:28;0.40;;;0.40;;
5521;SDS011;2783;48.730;8.006;2023-10-09T00:47:04;0.30;;;0.30;;
5521;SDS011;2783;48.730;8.006;2023-10-09T00:49:36;0.38;;;0.38;;
5521;SDS011;2783;48.730;8.006;2023-10-09T00:52:07;0.30;;;0.30;;
5521;SDS011;2783;48.730;8.006;2023-10-09T00:54:42;0.30;;;0.30;;
5521;SDS011;2783;48.730;8.006;2023-10-09T00:57:09;0.30;;;0.30;;
5521;SDS011;2783;48.730;8.006;2023-10-09T00:59:38;0.30;;;0.30;;
5521;SDS011;2783;48.730;8.006;2023-10-09T01:02:08;0.32;;;0.32;;
5521;SDS011;2783;48.730;8.006;2023-10-09T01:04:34;0.40;;;0.40;;
5521;SDS011;2783;48.730;8.006;2023-10-09T01:07:08;0.40;;;0.40;;
5521;SDS011;2783;48.730;8.006;2023-10-09T01:09:40;0.30;;;0.30;;
5521;SDS011;2783;48.730;8.006;2023-10-09T01:12:09;0.30;;;0.30;;
5521;SDS011;2783;48.730;8.006;2023-10-09T01:14:42;0.40;;;0.40;;
5521;SDS011;2783;48.730;8.006;2023-10-09T01:17:11;0.30;;;0.30;;
5521;SDS011;2783;48.730;8.006;2023-10-09T01:19:38;0.35;;;0.35;;
5521;SDS011;2783;48.730;8.006;2023-10-09T01:22:03;0.30;;;0.30;;
5521;SDS011;2783;48.730;8.006;2023-10-09T01:24:41;0.40;;;0.40;;
5521;SDS011;2783;48.730;8.006;2023-10-09T01:27:07;0.30;;;0.30;;
5521;SDS011;2783;48.730;8.006;2023-10-09T01:29:41;0.30;;;0.30;;
5521;SDS011;2783;48.730;8.006;2023-10-09T01:32:09;0.30;;;0.30;;
5521;SDS011;2783;48.730;8.006;2023-10-09T01:34:46;0.30;;;0.30;;
5521;SDS011;2783;48.730;8.006;2023-10-09T01:37:15;0.40;;;0.40;;
5521;SDS011;2783;48.730;8.006;2023-10-09T01:40:02;0.30;;;0.30;;
5521;SDS011;2783;48.730;8.006;2023-10-09T01:42:46;0.35;;;0.35;;
5521;SDS011;2783;48.730;8.006;2023-10-09T01:45:12;0.30;;;0.30;;
5521;SDS011;2783;48.730;8.006;2023-10-09T01:47:44;0.30;;;0.30;;
5521;SDS011;2783;48.730;8.006;2023-10-09T01:50:17;0.30;;;0.30;;
5521;SDS011;2783;48.730;8.006;2023-10-09T01:52:47;0.40;;;0.40;;
5521;SDS011;2783;48.730;8.006;2023-10-09T01:55:13;0.40;;;0.40;;
5521;SDS011;2783;48.730;8.006;2023-10-09T01:57:52;0.30;;;0.30;;
5521;SDS011;2783;48.730;8.006;2023-10-09T02:00:17;0.40;;;0.40;;
5521;SDS011;2783;48.730;8.006;2023-10-09T02:02:48;0.40;;;0.40;;
5521;SDS011;2783;48.730;8.006;2023-10-09T02:05:15;0.30;;;0.30;;
5521;SDS011;2783;48.730;8.006;2023-10-09T02:07:41;0.40;;;0.40;;
5521;SDS011;2783;48.730;8.006;2023-10-09T02:10:16;0.40;;;0.40;;
5521;SDS011;2783;48.730;8.006;2023-10-09T02:13:01;0.30;;;0.30;;
5521;SDS011;2783;48.730;8.006;2023-10-09T02:15:38;0.40;;;0.40;;
5521;SDS011;2783;48.730;8.006;2023-10-09T02:18:15;0.30;;;0.30;;
5521;SDS011;2783;48.730;8.006;2023-10-09T02:20:51;0.40;;;0.40;;
5521;SDS011;2783;48.730;8.006;2023-10-09T02:23:28;0.40;;;0.40;;
5521;SDS011;2783;48.730;8.006;2023-10-09T02:28:42;0.40;;;0.40;;
5521;SDS011;2783;48.730;8.006;2023-10-09T02:31:12;0.40;;;0.40;;
5521;SDS011;2783;48.730;8.006;2023-10-09T02:33:38;0.35;;;0.35;;
5521;SDS011;2783;48.730;8.006;2023-10-09T02:36:06;0.40;;;0.40;;
5521;SDS011;2783;48.730;8.006;2023-10-09T02:38:32;0.40;;;0.40;;
5521;SDS011;2783;48.730;8.006;2023-10-09T02:41:03;0.40;;;0.40;;
5521;SDS011;2783;48.730;8.006;2023-10-09T02:43:29;0.40;;;0.40;;
5521;SDS011;2783;48.730;8.006;2023-10-09T02:46:15;0.40;;;0.40;;
5521;SDS011;2783;48.730;8.006;2023-10-09T02:48:54;0.40;;;0.40;;
5521;SDS011;2783;48.730;8.006;2023-10-09T02:51:24;0.40;;;0.40;;
5521;SDS011;2783;48.730;8.006;2023-10-09T02:54:12;0.40;;;0.40;;
5521;SDS011;2783;48.730;8.006;2023-10-09T02:57:00;0.30;;;0.30;;
5521;SDS011;2783;48.730;8.006;2023-10-09T02:59:35;0.40;;;0.40;;
5521;SDS011;2783;48.730;8.006;2023-10-09T03:02:03;0.30;;;0.30;;
5521;SDS011;2783;48.730;8.006;2023-10-09T03:04:29;0.40;;;0.40;;
5521;SDS011;2783;48.730;8.006;2023-10-09T03:06:54;0.30;;;0.30;;
5521;SDS011;2783;48.730;8.006;2023-10-09T03:09:22;0.40;;;0.40;;
5521;SDS011;2783;48.730;8.006;2023-10-09T03:11:54;0.40;;;0.40;;
5521;SDS011;2783;48.730;8.006;2023-10-09T03:14:27;0.30;;;0.30;;
5521;SDS011;2783;48.730;8.006;2023-10-09T03:16:57;0.40;;;0.40;;
5521;SDS011;2783;48.730;8.006;2023-10-09T03:19:26;0.35;;;0.35;;
5521;SDS011;2783;48.730;8.006;2023-10-09T03:21:56;0.40;;;0.40;;
5521;SDS011;2783;48.730;8.006;2023-10-09T03:24:25;0.30;;;0.30;;
5521;SDS011;2783;48.730;8.006;2023-10-09T03:26:52;0.30;;;0.30;;
5521;SDS011;2783;48.730;8.006;2023-10-09T03:29:21;0.30;;;0.30;;
5521;SDS011;2783;48.730;8.006;2023-10-09T03:31:46;0.30;;;0.30;;
5521;SDS011;2783;48.730;8.006;2023-10-09T03:34:12;0.30;;;0.30;;
5521;SDS011;2783;48.730;8.006;2023-10-09T03:36:37;0.30;;;0.30;;
5521;SDS011;2783;48.730;8.006;2023-10-09T03:39:06;0.40;;;0.40;;
5521;SDS011;2783;48.730;8.006;2023-10-09T03:41:50;0.30;;;0.30;;
5521;SDS011;2783;48.730;8.006;2023-10-09T03:44:16;0.30;;;0.30;;
5521;SDS011;2783;48.730;8.006;2023-10-09T03:46:46;0.30;;;0.30;;
5521;SDS011;2783;48.730;8.006;2023-10-09T03:49:12;0.40;;;0.40;;
5521;SDS011;2783;48.730;8.006;2023-10-09T03:51:41;0.30;;;0.30;;
5521;SDS011;2783;48.730;8.006;2023-10-09T03:54:07;0.30;;;0.30;;
5521;SDS011;2783;48.730;8.006;2023-10-09T03:56:33;0.30;;;0.30;;
5521;SDS011;2783;48.730;8.006;2023-10-09T03:58:59;0.30;;;0.30;;
5521;SDS011;2783;48.730;8.006;2023-10-09T04:01:26;0.30;;;0.30;;
5521;SDS011;2783;48.730;8.006;2023-10-09T04:03:51;0.30;;;0.30;;
5521;SDS011;2783;48.730;8.006;2023-10-09T04:06:27;0.30;;;0.30;;
5521;SDS011;2783;48.730;8.006;2023-10-09T04:08:56;0.40;;;0.40;;
5521;SDS011;2783;48.730;8.006;2023-10-09T04:11:23;0.30;;;0.30;;
5521;SDS011;2783;48.730;8.006;2023-10-09T04:13:50;0.30;;;0.30;;
5521;SDS011;2783;48.730;8.006;2023-10-09T04:16:17;0.40;;;0.40;;
5521;SDS011;2783;48.730;8.006;2023-10-09T04:18:55;0.30;;;0.30;;
5521;SDS011;2783;48.730;8.006;2023-10-09T04:21:25;0.40;;;0.40;;
5521;SDS011;2783;48.730;8.006;2023-10-09T04:24:01;0.30;;;0.30;;
5521;SDS011;2783;48.730;8.006;2023-10-09T04:26:39;0.30;;;0.30;;
5521;SDS011;2783;48.730;8.006;2023-10-09T04:29:13;0.30;;;0.30;;
5521;SDS011;2783;48.730;8.006;2023-10-09T04:31:54;0.40;;;0.40;;
5521;SDS011;2783;48.730;8.006;2023-10-09T04:34:23;0.30;;;0.30;;
5521;SDS011;2783;48.730;8.006;2023-10-09T04:37:00;0.30;;;0.30;;
5521;SDS011;2783;48.730;8.006;2023-10-09T04:39:26;0.40;;;0.40;;
5521;SDS011;2783;48.730;8.006;2023-10-09T04:41:55;0.40;;;0.40;;
5521;SDS011;2783;48.730;8.006;2023-10-09T04:44:44;0.30;;;0.30;;
5521;SDS011;2783;48.730;8.006;2023-10-09T04:47:28;0.30;;;0.30;;
5521;SDS011;2783;48.730;8.006;2023-10-09T04:50:04;0.30;;;0.30;;
5521;SDS011;2783;48.730;8.006;2023-10-09T04:52:48;0.32;;;0.32;;
5521;SDS011;2783;48.730;8.006;2023-10-09T04:55:16;0.30;;;0.30;;
5521;SDS011;2783;48.730;8.006;2023-10-09T04:57:45;0.30;;;0.30;;
5521;SDS011;2783;48.730;8.006;2023-10-09T05:00:25;0.32;;;0.32;;
5521;SDS011;2783;48.730;8.006;2023-10-09T05:02:51;0.30;;;0.30;;
5521;SDS011;2783;48.730;8.006;2023-10-09T05:05:25;0.30;;;0.30;;
5521;SDS011;2783;48.730;8.006;2023-10-09T05:08:15;0.30;;;0.30;;
5521;SDS011;2783;48.730;8.006;2023-10-09T05:13:22;0.30;;;0.30;;
5521;SDS011;2783;48.730;8.006;2023-10-09T05:18:43;0.40;;;0.40;;
5521;SDS011;2783;48.730;8.006;2023-10-09T05:21:28;0.30;;;0.30;;
5521;SDS011;2783;48.730;8.006;2023-10-09T05:24:00;0.30;;;0.30;;
5521;SDS011;2783;48.730;8.006;2023-10-09T05:26:55;0.30;;;0.30;;
5521;SDS011;2783;48.730;8.006;2023-10-09T05:29:37;0.30;;;0.30;;
5521;SDS011;2783;48.730;8.006;2023-10-09T05:32:14;0.30;;;0.30;;
5521;SDS011;2783;48.730;8.006;2023-10-09T05:34:40;0.30;;;0.30;;
5521;SDS011;2783;48.730;8.006;2023-10-09T05:37:32;0.20;;;0.20;;
5521;SDS011;2783;48.730;8.006;2023-10-09T05:40:02;0.30;;;0.30;;
5521;SDS011;2783;48.730;8.006;2023-10-09T05:42:41;0.30;;;0.30;;
5521;SDS011;2783;48.730;8.006;2023-10-09T05:45:09;0.30;;;0.30;;
5521;SDS011;2783;48.730;8.006;2023-10-09T05:47:42;0.30;;;0.30;;
5521;SDS011;2783;48.730;8.006;2023-10-09T05:50:30;0.30;;;0.30;;
5521;SDS011;2783;48.730;8.006;2023-10-09T05:52:59;0.30;;;0.30;;
5521;SDS011;2783;48.730;8.006;2023-10-09T05:55:31;0.30;;;0.30;;
5521;SDS011;2783;48.730;8.006;2023-10-09T05:58:16;0.30;;;0.30;;
5521;SDS011;2783;48.730;8.006;2023-10-09T06:00:59;0.30;;;0.30;;
5521;SDS011;2783;48.730;8.006;2023-10-09T06:03:43;0.30;;;0.30;;
5521;SDS011;2783;48.730;8.006;2023-10-09T06:06:35;0.30;;;0.30;;
5521;SDS011;2783;48.730;8.006;2023-10-09T06:09:10;0.30;;;0.30;;
5521;SDS011;2783;48.730;8.006;2023-10-09T06:11:43;0.30;;;0.30;;
5521;SDS011;2783;48.730;8.006;2023-10-09T06:14:18;0.30;;;0.30;;
5521;SDS011;2783;48.730;8.006;2023-10-09T06:16:56;0.30;;;0.30;;
5521;SDS011;2783;48.730;8.006;2023-10-09T06:19:23;0.20;;;0.20;;
5521;SDS011;2783;48.730;8.006;2023-10-09T06:21:59;0.40;;;0.40;;
5521;SDS011;2783;48.730;8.006;2023-10-09T06:24:37;0.20;;;0.20;;
5521;SDS011;2783;48.730;8.006;2023-10-09T06:27:15;0.38;;;0.38;;
5521;SDS011;2783;48.730;8.006;2023-10-09T06:30:01;0.40;;;0.40;;
5521;SDS011;2783;48.730;8.006;2023-10-09T06:32:44;0.30;;;0.30;;
5521;SDS011;2783;48.730;8.006;2023-10-09T06:35:22;0.30;;;0.30;;
5521;SDS011;2783;48.730;8.006;2023-10-09T06:37:55;0.30;;;0.30;;
5521;SDS011;2783;48.730;8.006;2023-10-09T06:45:54;0.30;;;0.30;;
5521;SDS011;2783;48.730;8.006;2023-10-09T06:48:41;0.30;;;0.30;;
5521;SDS011;2783;48.730;8.006;2023-10-09T06:51:10;0.30;;;0.30;;
5521;SDS011;2783;48.730;8.006;2023-10-09T06:53:50;0.30;;;0.30;;
5521;SDS011;2783;48.730;8.006;2023-10-09T06:56:28;0.30;;;0.30;;
5521;SDS011;2783;48.730;8.006;2023-10-09T06:58:54;0.30;;;0.30;;
5521;SDS011;2783;48.730;8.006;2023-10-09T07:01:24;0.30;;;0.30;;
5521;SDS011;2783;48.730;8.006;2023-10-09T07:03:53;0.25;;;0.25;;
5521;SDS011;2783;48.730;8.006;2023-10-09T07:06:19;0.22;;;0.22;;
5521;SDS011;2783;48.730;8.006;2023-10-09T07:08:49;0.28;;;0.28;;
5521;SDS011;2783;48.730;8.006;2023-10-09T07:11:37;0.30;;;0.30;;
5521;SDS011;2783;48.730;8.006;2023-10-09T07:14:11;0.30;;;0.30;;
5521;SDS011;2783;48.730;8.006;2023-10-09T07:16:59;0.30;;;0.30;;
5521;SDS011;2783;48.730;8.006;2023-10-09T07:19:26;0.20;;;0.20;;
5521;SDS011;2783;48.730;8.006;2023-10-09T07:22:02;0.20;;;0.20;;
5521;SDS011;2783;48.730;8.006;2023-10-09T07:24:28;0.30;;;0.30;;
5521;SDS011;2783;48.730;8.006;2023-10-09T07:27:08;0.20;;;0.20;;
5521;SDS011;2783;48.730;8.006;2023-10-09T07:29:42;0.22;;;0.22;;
5521;SDS011;2783;48.730;8.006;2023-10-09T07:32:17;0.20;;;0.20;;
5521;SDS011;2783;48.730;8.006;2023-10-09T07:34:46;0.20;;;0.20;;
5521;SDS011;2783;48.730;8.006;2023-10-09T07:37:21;0.20;;;0.20;;
5521;SDS011;2783;48.730;8.006;2023-10-09T07:39:50;0.20;;;0.20;;
5521;SDS011;2783;48.730;8.006;2023-10-09T07:42:22;0.20;;;0.20;;
5521;SDS011;2783;48.730;8.006;2023-10-09T07:45:11;0.20;;;0.20;;
5521;SDS011;2783;48.730;8.006;2023-10-09T07:47:46;0.20;;;0.20;;
5521;SDS011;2783;48.730;8.006;2023-10-09T07:50:29;0.10;;;0.10;;
5521;SDS011;2783;48.730;8.006;2023-10-09T07:53:06;0.20;;;0.20;;
5521;SDS011;2783;48.730;8.006;2023-10-09T07:55:51;0.10;;;0.10;;
5521;SDS011;2783;48.730;8.006;2023-10-09T07:58:24;0.10;;;0.10;;
5521;SDS011;2783;48.730;8.006;2023-10-09T08:03:35;0.10;;;0.10;;
5521;SDS011;2783;48.730;8.006;2023-10-09T08:06:01;0.10;;;0.10;;
5521;SDS011;2783;48.730;8.006;2023-10-09T08:08:46;0.10;;;0.10;;
5521;SDS011;2783;48.730;8.006;2023-10-09T08:11:42;0.10;;;0.10;;
5521;SDS011;2783;48.730;8.006;2023-10-09T08:14:12;0.10;;;0.10;;
5521;SDS011;2783;48.730;8.006;2023-10-09T08:16:47;0.10;;;0.10;;
5521;SDS011;2783;48.730;8.006;2023-10-09T08:19:13;0.10;;;0.10;;
5521;SDS011;2783;48.730;8.006;2023-10-09T08:21:57;0.10;;;0.10;;
5521;SDS011;2783;48.730;8.006;2023-10-09T08:24:42;0.10;;;0.10;;
5521;SDS011;2783;48.730;8.006;2023-10-09T08:27:09;0.10;;;0.10;;
5521;SDS011;2783;48.730;8.006;2023-10-09T08:29:53;0.10;;;0.10;;
5521;SDS011;2783;48.730;8.006;2023-10-09T08:32:38;0.10;;;0.10;;
5521;SDS011;2783;48.730;8.006;2023-10-09T08:35:04;0.10;;;0.10;;
5521;SDS011;2783;48.730;8.006;2023-10-09T08:37:44;0.10;;;0.10;;
5521;SDS011;2783;48.730;8.006;2023-10-09T08:40:13;0.10;;;0.10;;
5521;SDS011;2783;48.730;8.006;2023-10-09T08:42:44;0.10;;;0.10;;
5521;SDS011;2783;48.730;8.006;2023-10-09T08:45:18;0.10;;;0.10;;
5521;SDS011;2783;48.730;8.006;2023-10-09T08:47:49;0.10;;;0.10;;
5521;SDS011;2783;48.730;8.006;2023-10-09T08:50:19;0.10;;;0.10;;
5521;SDS011;2783;48.730;8.006;2023-10-09T08:52:47;0.10;;;0.10;;
5521;SDS011;2783;48.730;8.006;2023-10-09T08:55:15;0.10;;;0.10;;
5521;SDS011;2783;48.730;8.006;2023-10-09T08:57:42;0.10;;;0.10;;
5521;SDS011;2783;48.730;8.006;2023-10-09T09:00:20;0.10;;;0.10;;
5521;SDS011;2783;48.730;8.006;2023-10-09T09:02:48;0.10;;;0.10;;
5521;SDS011;2783;48.730;8.006;2023-10-09T09:05:18;0.10;;;0.10;;
5521;SDS011;2783;48.730;8.006;2023-10-09T09:07:51;0.10;;;0.10;;
5521;SDS011;2783;48.730;8.006;2023-10-09T09:10:23;0.00;;;0.00;;
5521;SDS011;2783;48.730;8.006;2023-10-09T09:13:00;0.00;;;0.00;;
5521;SDS011;2783;48.730;8.006;2023-10-09T09:15:29;0.00;;;0.00;;
5521;SDS011;2783;48.730;8.006;2023-10-09T09:18:04;0.10;;;0.10;;
5521;SDS011;2783;48.730;8.006;2023-10-09T09:20:31;0.00;;;0.00;;
5521;SDS011;2783;48.730;8.006;2023-10-09T09:23:05;0.05;;;0.05;;
5521;SDS011;2783;48.730;8.006;2023-10-09T09:25:44;0.00;;;0.00;;
5521;SDS011;2783;48.730;8.006;2023-10-09T09:28:13;0.08;;;0.08;;
5521;SDS011;2783;48.730;8.006;2023-10-09T09:30:44;0.00;;;0.00;;
5521;SDS011;2783;48.730;8.006;2023-10-09T09:38:25;0.00;;;0.00;;
5521;SDS011;2783;48.730;8.006;2023-10-09T09:40:53;0.10;;;0.10;;
5521;SDS011;2783;48.730;8.006;2023-10-09T09:43:21;0.10;;;0.10;;
5521;SDS011;2783;48.730;8.006;2023-10-09T09:45:47;0.10;;;0.10;;
5521;SDS011;2783;48.730;8.006;2023-10-09T09:48:16;0.00;;;0.00;;
5521;SDS011;2783;48.730;8.006;2023-10-09T09:50:42;0.03;;;0.03;;
5521;SDS011;2783;48.730;8.006;2023-10-09T09:53:12;0.00;;;0.00;;
5521;SDS011;2783;48.730;8.006;2023-10-09T09:55:53;0.00;;;0.00;;
5521;SDS011;2783;48.730;8.006;2023-10-09T09:58:23;0.00;;;0.00;;
5521;SDS011;2783;48.730;8.006;2023-10-09T10:01:00;0.00;;;0.00;;
5521;SDS011;2783;48.730;8.006;2023-10-09T10:04:04;0.00;;;0.00;;
5521;SDS011;2783;48.730;8.006;2023-10-09T10:06:39;0.00;;;0.00;;
5521;SDS011;2783;48.730;8.006;2023-10-09T10:09:08;0.00;;;0.00;;
5521;SDS011;2783;48.730;8.006;2023-10-09T10:11:46;0.00;;;0.00;;
5521;SDS011;2783;48.730;8.006;2023-10-09T10:14:17;0.00;;;0.00;;
5521;SDS011;2783;48.730;8.006;2023-10-09T10:16:59;0.00;;;0.00;;
5521;SDS011;2783;48.730;8.006;2023-10-09T10:22:44;0.00;;;0.00;;
5521;SDS011;2783;48.730;8.006;2023-10-09T10:25:34;0.00;;;0.00;;
5521;SDS011;2783;48.730;8.006;2023-10-09T10:28:16;0.00;;;0.00;;
5521;SDS011;2783;48.730;8.006;2023-10-09T10:30:46;0.00;;;0.00;;
5521;SDS011;2783;48.730;8.006;2023-10-09T10:33:11;0.00;;;0.00;;
5521;SDS011;2783;48.730;8.006;2023-10-09T10:35:47;0.00;;;0.00;;
5521;SDS011;2783;48.730;8.006;2023-10-09T10:38:30;0.00;;;0.00;;
5521;SDS011;2783;48.730;8.006;2023-10-09T10:41:08;0.00;;;0.00;;
5521;SDS011;2783;48.730;8.006;2023-10-09T10:43:36;0.00;;;0.00;;
5521;SDS011;2783;48.730;8.006;2023-10-09T10:46:18;0.00;;;0.00;;
5521;SDS011;2783;48.730;8.006;2023-10-09T10:49:06;0.00;;;0.00;;
5521;SDS011;2783;48.730;8.006;2023-10-09T10:51:41;0.00;;;0.00;;
5521;SDS011;2783;48.730;8.006;2023-10-09T10:54:19;0.00;;;0.00;;
5521;SDS011;2783;48.730;8.006;2023-10-09T10:56:58;0.00;;;0.00;;
5521;SDS011;2783;48.730;8.006;2023-10-09T10:59:25;0.00;;;0.00;;
5521;SDS011;2783;48.730;8.006;2023-10-09T11:01:51;0.00;;;0.00;;
5521;SDS011;2783;48.730;8.006;2023-10-09T11:04:27;0.00;;;0.00;;
5521;SDS011;2783;48.730;8.006;2023-10-09T11:06:56;0.00;;;0.00;;
5521;SDS011;2783;48.730;8.006;2023-10-09T11:09:26;0.00;;;0.00;;
5521;SDS011;2783;48.730;8.006;2023-10-09T11:12:06;0.00;;;0.00;;
5521;SDS011;2783;48.730;8.006;2023-10-09T11:14:49;0.00;;;0.00;;
5521;SDS011;2783;48.730;8.006;2023-10-09T11:18:02;0.00;;;0.00;;
5521;SDS011;2783;48.730;8.006;2023-10-09T11:20:42;0.00;;;0.00;;
5521;SDS011;2783;48.730;8.006;2023-10-09T11:23:21;0.00;;;0.00;;
5521;SDS011;2783;48.730;8.006;2023-10-09T11:26:00;0.00;;;0.00;;
5521;SDS011;2783;48.730;8.006;2023-10-09T11:29:09;0.00;;;0.00;;
5521;SDS011;2783;48.730;8.006;2023-10-09T11:31:42;0.00;;;0.00;;
5521;SDS011;2783;48.730;8.006;2023-10-09T11:34:22;0.00;;;0.00;;
5521;SDS011;2783;48.730;8.006;2023-10-09T11:37:01;0.00;;;0.00;;
5521;SDS011;2783;48.730;8.006;2023-10-09T11:39:28;0.00;;;0.00;;
5521;SDS011;2783;48.730;8.006;2023-10-09T11:42:15;0.00;;;0.00;;
5521;SDS011;2783;48.730;8.006;2023-10-09T11:45:01;0.00;;;0.00;;
5521;SDS011;2783;48.730;8.006;2023-10-09T11:47:48;0.00;;;0.00;;
5521;SDS011;2783;48.730;8.006;2023-10-09T11:50:43;0.00;;;0.00;;
5521;SDS011;2783;48.730;8.006;2023-10-09T11:53:15;0.00;;;0.00;;
5521;SDS011;2783;48.730;8.006;2023-10-09T11:55:58;0.00;;;0.00;;
5521;SDS011;2783;48.730;8.006;2023-10-09T11:58:24;0.00;;;0.00;;
5521;SDS011;2783;48.730;8.006;2023-10-09T12:00:53;0.00;;;0.00;;
5521;SDS011;2783;48.730;8.006;2023-10-09T12:03:25;0.00;;;0.00;;
5521;SDS011;2783;48.730;8.006;2023-10-09T12:06:01;0.10;;;0.10;;
5521;SDS011;2783;48.730;8.006;2023-10-09T12:08:37;0.00;;;0.00;;
5521;SDS011;2783;48.730;8.006;2023-10-09T12:11:03;0.00;;;0.00;;
5521;SDS011;2783;48.730;8.006;2023-10-09T12:13:33;0.00;;;0.00;;
5521;SDS011;2783;48.730;8.006;2023-10-09T12:15:58;0.00;;;0.00;;
5521;SDS011;2783;48.730;8.006;2023-10-09T12:18:24;0.00;;;0.00;;
5521;SDS011;2783;48.730;8.006;2023-10-09T12:20:50;0.00;;;0.00;;
5521;SDS011;2783;48.730;8.006;2023-10-09T12:23:17;0.00;;;0.00;;
5521;SDS011;2783;48.730;8.006;2023-10-09T12:25:43;0.00;;;0.00;;
5521;SDS011;2783;48.730;8.006;2023-10-09T12:28:12;0.00;;;0.00;;
5521;SDS011;2783;48.730;8.006;2023-10-09T12:30:38;0.00;;;0.00;;
5521;SDS011;2783;48.730;8.006;2023-10-09T12:33:07;0.00;;;0.00;;
5521;SDS011;2783;48.730;8.006;2023-10-09T12:35:37;0.00;;;0.00;;
5521;SDS011;2783;48.730;8.006;2023-10-09T12:38:04;0.00;;;0.00;;
5521;SDS011;2783;48.730;8.006;2023-10-09T12:40:34;0.00;;;0.00;;
5521;SDS011;2783;48.730;8.006;2023-10-09T12:43:00;0.00;;;0.00;;
5521;SDS011;2783;48.730;8.006;2023-10-09T12:45:26;0.00;;;0.00;;
5521;SDS011;2783;48.730;8.006;2023-10-09T12:47:52;0.00;;;0.00;;
5521;SDS011;2783;48.730;8.006;2023-10-09T12:50:22;0.00;;;0.00;;
5521;SDS011;2783;48.730;8.006;2023-10-09T12:52:56;0.00;;;0.00;;
5521;SDS011;2783;48.730;8.006;2023-10-09T12:55:21;0.00;;;0.00;;
5521;SDS011;2783;48.730;8.006;2023-10-09T12:57:56;0.00;;;0.00;;
5521;SDS011;2783;48.730;8.006;2023-10-09T13:00:31;0.00;;;0.00;;
5521;SDS011;2783;48.730;8.006;2023-10-09T13:03:08;0.00;;;0.00;;
5521;SDS011;2783;48.730;8.006;2023-10-09T13:05:46;0.00;;;0.00;;
5521;SDS011;2783;48.730;8.006;2023-10-09T13:08:28;0.00;;;0.00;;
5521;SDS011;2783;48.730;8.006;2023-10-09T13:11:03;0.00;;;0.00;;
5521;SDS011;2783;48.730;8.006;2023-10-09T13:13:35;0.00;;;0.00;;
5521;SDS011;2783;48.730;8.006;2023-10-09T13:16:09;0.00;;;0.00;;
5521;SDS011;2783;48.730;8.006;2023-10-09T13:18:45;0.00;;;0.00;;
5521;SDS011;2783;48.730;8.006;2023-10-09T13:21:24;0.00;;;0.00;;
5521;SDS011;2783;48.730;8.006;2023-10-09T13:23:51;0.00;;;0.00;;
5521;SDS011;2783;48.730;8.006;2023-10-09T13:26:19;0.00;;;0.00;;
5521;SDS011;2783;48.730;8.006;2023-10-09T13:28:53;0.00;;;0.00;;
5521;SDS011;2783;48.730;8.006;2023-10-09T13:31:21;0.00;;;0.00;;
5521;SDS011;2783;48.730;8.006;2023-10-09T13:33:50;0.00;;;0.00;;
5521;SDS011;2783;48.730;8.006;2023-10-09T13:36:19;0.00;;;0.00;;
5521;SDS011;2783;48.730;8.006;2023-10-09T13:38:52;0.00;;;0.00;;
5521;SDS011;2783;48.730;8.006;2023-10-09T13:41:18;0.00;;;0.00;;
5521;SDS011;2783;48.730;8.006;2023-10-09T13:43:44;0.00;;;0.00;;
5521;SDS011;2783;48.730;8.006;2023-10-09T13:46:09;0.00;;;0.00;;
5521;SDS011;2783;48.730;8.006;2023-10-09T13:48:42;0.00;;;0.00;;
5521;SDS011;2783;48.730;8.006;2023-10-09T13:51:09;0.00;;;0.00;;
5521;SDS011;2783;48.730;8.006;2023-10-09T13:53:45;0.00;;;0.00;;
5521;SDS011;2783;48.730;8.006;2023-10-09T13:56:17;0.00;;;0.00;;
5521;SDS011;2783;48.730;8.006;2023-10-09T13:58:46;0.00;;;0.00;;
5521;SDS011;2783;48.730;8.006;2023-10-09T14:01:14;0.00;;;0.00;;
5521;SDS011;2783;48.730;8.006;2023-10-09T14:03:58;0.00;;;0.00;;
5521;SDS011;2783;48.730;8.006;2023-10-09T14:06:25;0.00;;;0.00;;
5521;SDS011;2783;48.730;8.006;2023-10-09T14:11:32;0.00;;;0.00;;
5521;SDS011;2783;48.730;8.006;2023-10-09T14:14:02;0.00;;;0.00;;
5521;SDS011;2783;48.730;8.006;2023-10-09T14:16:38;0.00;;;0.00;;
5521;SDS011;2783;48.730;8.006;2023-10-09T14:21:38;0.00;;;0.00;;
5521;SDS011;2783;48.730;8.006;2023-10-09T14:24:05;0.00;;;0.00;;
5521;SDS011;2783;48.730;8.006;2023-10-09T14:26:40;0.00;;;0.00;;
5521;SDS011;2783;48.730;8.006;2023-10-09T14:29:07;0.00;;;0.00;;
5521;SDS011;2783;48.730;8.006;2023-10-09T14:31:33;0.00;;;0.00;;
5521;SDS011;2783;48.730;8.006;2023-10-09T14:34:04;0.00;;;0.00;;
5521;SDS011;2783;48.730;8.006;2023-10-09T14:36:30;0.00;;;0.00;;
5521;SDS011;2783;48.730;8.006;2023-10-09T14:38:59;0.00;;;0.00;;
5521;SDS011;2783;48.730;8.006;2023-10-09T14:41:25;0.00;;;0.00;;
5521;SDS011;2783;48.730;8.006;2023-10-09T14:43:52;0.00;;;0.00;;
5521;SDS011;2783;48.730;8.006;2023-10-09T14:46:21;0.00;;;0.00;;
5521;SDS011;2783;48.730;8.006;2023-10-09T14:48:54;0.00;;;0.00;;
5521;SDS011;2783;48.730;8.006;2023-10-09T14:51:23;0.00;;;0.00;;
5521;SDS011;2783;48.730;8.006;2023-10-09T14:53:55;0.00;;;0.00;;
5521;SDS011;2783;48.730;8.006;2023-10-09T14:56:28;0.00;;;0.00;;
5521;SDS011;2783;48.730;8.006;2023-10-09T14:58:55;0.00;;;0.00;;
5521;SDS011;2783;48.730;8.006;2023-10-09T15:01:24;0.00;;;0.00;;
5521;SDS011;2783;48.730;8.006;2023-10-09T15:03:57;0.00;;;0.00;;
5521;SDS011;2783;48.730;8.006;2023-10-09T15:06:29;0.00;;;0.00;;
5521;SDS011;2783;48.730;8.006;2023-10-09T15:08:58;0.00;;;0.00;;
5521;SDS011;2783;48.730;8.006;2023-10-09T15:11:32;0.00;;;0.00;;
5521;SDS011;2783;48.730;8.006;2023-10-09T15:13:58;0.00;;;0.00;;
5521;SDS011;2783;48.730;8.006;2023-10-09T15:16:24;0.00;;;0.00;;
5521;SDS011;2783;48.730;8.006;2023-10-09T15:18:55;0.00;;;0.00;;
5521;SDS011;2783;48.730;8.006;2023-10-09T15:21:27;0.00;;;0.00;;
5521;SDS011;2783;48.730;8.006;2023-10-09T15:23:56;0.00;;;0.00;;
5521;SDS011;2783;48.730;8.006;2023-10-09T15:26:23;0.00;;;0.00;;
5521;SDS011;2783;48.730;8.006;2023-10-09T15:28:50;0.00;;;0.00;;
5521;SDS011;2783;48.730;8.006;2023-10-09T15:31:17;0.00;;;0.00;;
5521;SDS011;2783;48.730;8.006;2023-10-09T15:33:43;0.00;;;0.00;;
5521;SDS011;2783;48.730;8.006;2023-10-09T15:36:12;0.00;;;0.00;;
5521;SDS011;2783;48.730;8.006;2023-10-09T15:38:39;0.00;;;0.00;;
5521;SDS011;2783;48.730;8.006;2023-10-09T15:41:05;0.00;;;0.00;;
5521;SDS011;2783;48.730;8.006;2023-10-09T15:43:36;0.00;;;0.00;;
5521;SDS011;2783;48.730;8.006;2023-10-09T15:46:02;0.00;;;0.00;;
5521;SDS011;2783;48.730;8.006;2023-10-09T15:48:28;0.00;;;0.00;;
5521;SDS011;2783;48.730;8.006;2023-10-09T15:50:53;0.00;;;0.00;;
5521;SDS011;2783;48.730;8.006;2023-10-09T15:53:19;0.00;;;0.00;;
5521;SDS011;2783;48.730;8.006;2023-10-09T15:55:45;0.00;;;0.00;;
5521;SDS011;2783;48.730;8.006;2023-10-09T15:58:11;0.00;;;0.00;;
5521;SDS011;2783;48.730;8.006;2023-10-09T16:00:37;0.00;;;0.00;;
5521;SDS011;2783;48.730;8.006;2023-10-09T16:03:04;0.00;;;0.00;;
5521;SDS011;2783;48.730;8.006;2023-10-09T16:05:33;0.00;;;0.00;;
5521;SDS011;2783;48.730;8.006;2023-10-09T16:08:01;0.10;;;0.10;;
5521;SDS011;2783;48.730;8.006;2023-10-09T16:10:28;0.00;;;0.00;;
5521;SDS011;2783;48.730;8.006;2023-10-09T16:12:56;0.00;;;0.00;;
5521;SDS011;2783;48.730;8.006;2023-10-09T16:15:22;0.00;;;0.00;;
5521;SDS011;2783;48.730;8.006;2023-10-09T16:17:49;0.03;;;0.03;;
5521;SDS011;2783;48.730;8.006;2023-10-09T16:20:24;0.00;;;0.00;;